createdAt,value
2023-04-18T00:01:42.683Z,11.20
2023-04-18T00:04:09.598Z,12.77
2023-04-18T00:06:36.323Z,12.50
2023-04-18T00:09:03.617Z,11.67
2023-04-18T00:11:30.327Z,12.00
2023-04-18T00:13:57.385Z,12.37
2023-04-18T00:16:24.561Z,12.23
2023-04-18T00:18:52.589Z,11.87
2023-04-18T00:21:19.525Z,12.03
2023-04-18T00:23:46.444Z,12.47
2023-04-18T00:26:13.257Z,11.53
2023-04-18T00:28:39.838Z,12.53
2023-04-18T00:31:06.531Z,11.47
2023-04-18T00:33:34.362Z,11.73
2023-04-18T00:36:01.026Z,11.73
2023-04-18T00:38:27.701Z,12.07
2023-04-18T00:40:54.404Z,12.03
2023-04-18T00:43:23.805Z,11.97
2023-04-18T00:45:50.645Z,12.33
2023-04-18T00:48:17.520Z,12.40
2023-04-18T00:50:45.205Z,12.17
2023-04-18T00:53:11.859Z,11.90
2023-04-18T00:55:39.061Z,12.47
2023-04-18T00:58:06.330Z,12.40
2023-04-18T01:00:33.072Z,12.47
2023-04-18T01:03:00.222Z,11.70
2023-04-18T01:05:27.205Z,11.67
2023-04-18T01:07:58.647Z,11.93
2023-04-18T01:10:26.349Z,12.33
2023-04-18T01:13:19.280Z,12.57
2023-04-18T01:15:49.083Z,11.50
2023-04-18T01:18:16.831Z,12.13
2023-04-18T01:20:48.659Z,11.57
2023-04-18T01:23:16.473Z,11.47
2023-04-18T01:25:44.051Z,12.17
2023-04-18T01:28:12.602Z,12.13
2023-04-18T01:30:39.614Z,10.60
2023-04-18T01:33:07.002Z,11.43
2023-04-18T01:35:34.027Z,11.30
2023-04-18T01:38:01.159Z,12.50
2023-04-18T01:40:27.818Z,11.90
2023-04-18T01:42:54.450Z,11.33
2023-04-18T01:45:22.256Z,12.00
2023-04-18T01:47:48.979Z,11.70
2023-04-18T01:50:15.679Z,11.77
2023-04-18T01:52:42.290Z,11.63
2023-04-18T01:55:09.269Z,11.90
2023-04-18T01:57:36.815Z,11.53
2023-04-18T02:00:06.098Z,11.37
2023-04-18T02:02:33.107Z,11.93
2023-04-18T02:05:00.002Z,10.93
2023-04-18T02:07:26.844Z,11.90
2023-04-18T02:09:56.866Z,10.77
2023-04-18T02:12:23.548Z,11.87
2023-04-18T02:14:54.073Z,11.23
2023-04-18T02:17:23.476Z,11.40
2023-04-18T02:19:53.368Z,11.67
2023-04-18T02:22:20.059Z,11.37
2023-04-18T02:24:46.615Z,11.17
2023-04-18T02:27:13.279Z,11.33
2023-04-18T02:29:39.870Z,11.07
2023-04-18T02:32:06.747Z,11.53
2023-04-18T02:34:33.784Z,10.97
2023-04-18T02:37:00.629Z,11.07
2023-04-18T02:39:27.327Z,10.97
2023-04-18T02:41:53.899Z,11.47
2023-04-18T02:44:20.561Z,11.23
2023-04-18T02:46:47.125Z,10.63
2023-04-18T02:49:13.916Z,11.00
2023-04-18T02:51:40.509Z,10.73
2023-04-18T02:54:07.080Z,11.37
2023-04-18T02:56:33.779Z,11.07
2023-04-18T02:59:00.380Z,11.67
2023-04-18T03:01:27.011Z,11.00
2023-04-18T03:03:53.691Z,11.40
2023-04-18T03:06:20.361Z,10.83
2023-04-18T03:08:47.068Z,11.03
2023-04-18T03:11:13.784Z,11.20
2023-04-18T03:13:40.818Z,10.93
2023-04-18T03:16:07.620Z,10.70
2023-04-18T03:18:34.314Z,11.03
2023-04-18T03:21:00.946Z,11.20
2023-04-18T03:23:27.588Z,9.83
2023-04-18T03:25:54.255Z,10.47
2023-04-18T03:28:20.830Z,10.67
2023-04-18T03:30:47.368Z,10.80
2023-04-18T03:33:14.721Z,11.30
2023-04-18T03:35:41.357Z,11.20
2023-04-18T03:38:08.086Z,10.33
2023-04-18T03:40:34.673Z,10.63
2023-04-18T03:43:01.201Z,10.20
2023-04-18T03:45:28.103Z,10.47
2023-04-18T03:47:54.971Z,10.40
2023-04-18T03:50:21.851Z,10.97
2023-04-18T03:52:48.465Z,10.53
2023-04-18T03:55:15.121Z,10.90
2023-04-18T03:57:41.764Z,10.43
2023-04-18T04:00:10.206Z,10.83
2023-04-18T04:02:37.034Z,10.50
2023-04-18T04:05:05.051Z,10.10
2023-04-18T04:07:35.109Z,10.30
2023-04-18T04:10:01.731Z,10.67
2023-04-18T04:12:28.464Z,10.90
2023-04-18T04:14:55.127Z,10.93
2023-04-18T04:17:21.824Z,11.00
2023-04-18T04:19:50.327Z,10.80
2023-04-18T04:22:17.235Z,11.67
2023-04-18T04:24:46.605Z,12.87
2023-04-18T04:27:13.648Z,10.47
2023-04-18T04:29:41.190Z,11.33
2023-04-18T04:32:08.073Z,10.40
2023-04-18T04:34:35.626Z,10.80
2023-04-18T04:37:02.684Z,11.87
2023-04-18T04:39:29.282Z,11.20
2023-04-18T04:41:57.537Z,12.10
2023-04-18T04:44:26.746Z,10.97
2023-04-18T04:46:54.332Z,11.40
2023-04-18T04:49:21.017Z,10.80
2023-04-18T04:51:47.668Z,11.30
2023-04-18T04:54:14.557Z,11.23
2023-04-18T04:56:41.314Z,12.57
2023-04-18T04:59:07.892Z,12.20
2023-04-18T05:01:34.632Z,12.53
2023-04-18T05:04:01.274Z,12.40
2023-04-18T05:06:28.025Z,12.00
2023-04-18T05:08:56.677Z,12.13
2023-04-18T05:11:23.394Z,11.97
2023-04-18T05:13:49.988Z,11.93
2023-04-18T05:16:16.813Z,12.37
2023-04-18T05:18:43.466Z,12.00
2023-04-18T05:21:10.512Z,12.80
2023-04-18T05:23:39.876Z,12.30
2023-04-18T05:26:06.858Z,11.60
2023-04-18T05:28:33.561Z,12.87
2023-04-18T05:31:02.988Z,11.67
2023-04-18T05:33:30.687Z,12.53
2023-04-18T05:35:58.299Z,12.47
2023-04-18T05:38:25.435Z,11.90
2023-04-18T05:40:52.109Z,11.43
2023-04-18T05:43:19.674Z,11.57
2023-04-18T05:45:46.900Z,11.57
2023-04-18T05:48:13.860Z,10.70
2023-04-18T05:50:40.657Z,10.03
2023-04-18T05:53:07.349Z,10.73
2023-04-18T05:55:34.446Z,9.83
2023-04-18T05:58:01.104Z,8.90
2023-04-18T06:00:28.178Z,10.00
2023-04-18T06:02:55.131Z,9.17
2023-04-18T06:05:22.164Z,9.97
2023-04-18T06:07:49.121Z,9.60
2023-04-18T06:10:16.133Z,9.67
2023-04-18T06:12:42.767Z,10.13
2023-04-18T06:15:10.201Z,9.63
2023-04-18T06:17:36.924Z,10.17
2023-04-18T06:20:06.323Z,9.93
2023-04-18T06:22:34.126Z,10.00
2023-04-18T06:25:01.040Z,9.33
2023-04-18T06:27:31.689Z,10.27
2023-04-18T06:29:58.754Z,10.60
2023-04-18T06:32:25.601Z,9.90
2023-04-18T06:34:53.055Z,9.70
2023-04-18T06:37:19.880Z,10.07
2023-04-18T06:39:46.455Z,9.77
2023-04-18T06:42:13.136Z,9.43
2023-04-18T06:44:39.757Z,10.43
2023-04-18T06:47:06.395Z,10.13
2023-04-18T06:49:32.920Z,9.93
2023-04-18T06:51:59.538Z,9.30
2023-04-18T06:54:26.190Z,10.13
2023-04-18T06:56:53.665Z,10.33
2023-04-18T06:59:21.488Z,9.60
2023-04-18T07:01:52.203Z,9.43
2023-04-18T07:04:19.133Z,9.63
2023-04-18T07:06:46.088Z,9.90
2023-04-18T07:09:12.670Z,9.07
2023-04-18T07:11:40.557Z,9.47
2023-04-18T07:14:07.240Z,8.93
2023-04-18T07:16:34.680Z,9.10
2023-04-18T07:19:01.368Z,8.70
2023-04-18T07:21:28.294Z,8.80
2023-04-18T07:23:55.250Z,9.40
2023-04-18T07:26:22.015Z,8.80
2023-04-18T07:28:49.217Z,8.60
2023-04-18T07:31:16.450Z,8.53
2023-04-18T07:33:43.318Z,8.57
2023-04-18T07:36:09.970Z,8.23
2023-04-18T07:38:36.616Z,8.43
2023-04-18T07:41:03.414Z,8.60
2023-04-18T07:43:30.552Z,8.77
2023-04-18T07:45:57.412Z,9.10
2023-04-18T07:48:25.290Z,8.90
2023-04-18T07:50:52.058Z,8.73
2023-04-18T07:53:18.659Z,8.67
2023-04-18T07:55:45.872Z,8.83
2023-04-18T07:58:12.978Z,8.63
2023-04-18T08:00:42.294Z,9.23
2023-04-18T08:03:12.656Z,8.73
2023-04-18T08:05:40.857Z,8.90
2023-04-18T08:08:09.173Z,9.37
2023-04-18T08:10:36.442Z,8.93
2023-04-18T08:13:03.634Z,8.87
2023-04-18T08:15:32.894Z,9.40
2023-04-18T08:18:00.692Z,9.47
2023-04-18T08:20:27.589Z,9.50
2023-04-18T08:23:05.604Z,8.60
2023-04-18T08:25:36.143Z,9.43
2023-04-18T08:28:02.761Z,9.77
2023-04-18T08:30:30.038Z,8.80
2023-04-18T08:32:56.685Z,8.97
2023-04-18T08:35:23.841Z,10.00
2023-04-18T08:37:50.440Z,9.10
2023-04-18T08:40:17.133Z,9.47
2023-04-18T08:42:44.842Z,8.77
2023-04-18T08:45:14.141Z,8.80
2023-04-18T08:47:41.885Z,9.57
2023-04-18T08:50:10.247Z,9.40
2023-04-18T08:52:38.919Z,8.70
2023-04-18T08:55:06.057Z,8.33
2023-04-18T08:57:33.297Z,9.20
2023-04-18T09:00:01.516Z,8.30
2023-04-18T09:02:46.887Z,8.63
2023-04-18T09:05:19.622Z,8.80
2023-04-18T09:07:47.871Z,8.83
2023-04-18T09:10:32.821Z,8.73
2023-04-18T09:13:03.277Z,8.77
2023-04-18T09:15:30.424Z,9.20
2023-04-18T09:17:59.612Z,9.17
2023-04-18T09:20:30.533Z,9.50
2023-04-18T09:23:00.569Z,8.97
2023-04-18T09:25:29.516Z,8.83
2023-04-18T09:28:00.621Z,8.40
2023-04-18T09:30:39.364Z,8.47
2023-04-18T09:33:09.885Z,8.83
2023-04-18T09:35:37.884Z,8.27
2023-04-18T09:38:05.664Z,9.13
2023-04-18T09:40:33.105Z,9.43
2023-04-18T09:42:59.782Z,8.57
2023-04-18T09:45:27.077Z,8.70
2023-04-18T09:47:54.342Z,8.73
2023-04-18T09:50:21.309Z,8.37
2023-04-18T09:52:48.590Z,9.50
2023-04-18T09:55:17.571Z,9.00
2023-04-18T09:57:46.685Z,8.77
2023-04-18T10:00:24.598Z,8.57
2023-04-18T10:02:56.364Z,8.97
2023-04-18T10:05:30.091Z,9.13
2023-04-18T10:07:57.521Z,8.77
2023-04-18T10:10:24.848Z,8.63
2023-04-18T10:12:54.631Z,9.50
2023-04-18T10:15:23.618Z,8.60
2023-04-18T10:18:04.232Z,8.80
2023-04-18T10:20:34.975Z,8.57
2023-04-18T10:23:30.758Z,8.73
2023-04-18T10:25:58.236Z,9.10
2023-04-18T10:28:26.462Z,8.90
2023-04-18T10:31:03.960Z,11.37
2023-04-18T10:33:42.359Z,12.57
2023-04-18T10:36:09.512Z,8.77
2023-04-18T10:38:45.269Z,8.40
2023-04-18T10:41:32.107Z,8.50
2023-04-18T10:44:10.401Z,8.87
2023-04-18T10:46:38.559Z,8.13
2023-04-18T10:49:26.368Z,8.30
2023-04-18T10:51:56.167Z,8.57
2023-04-18T10:54:25.629Z,8.40
2023-04-18T10:56:56.566Z,8.10
2023-04-18T10:59:25.066Z,8.33
2023-04-18T11:02:32.257Z,8.63
2023-04-18T11:05:01.470Z,8.57
2023-04-18T11:07:46.031Z,8.57
2023-04-18T11:10:13.092Z,8.33
2023-04-18T11:12:40.853Z,8.33
2023-04-18T11:15:21.428Z,8.93
2023-04-18T11:18:00.926Z,8.03
2023-04-18T11:20:29.434Z,8.90
2023-04-18T11:22:58.156Z,8.23
2023-04-18T11:25:28.595Z,9.00
2023-04-18T11:27:57.998Z,8.80
2023-04-18T11:30:24.667Z,8.10
2023-04-18T11:32:51.796Z,8.17
2023-04-18T11:35:18.771Z,8.47
2023-04-18T11:37:45.871Z,8.07
2023-04-18T11:40:13.717Z,8.17
2023-04-18T11:42:41.194Z,7.70
2023-04-18T11:45:15.458Z,8.47
2023-04-18T11:47:43.310Z,8.43
2023-04-18T11:50:12.608Z,8.43
2023-04-18T11:52:41.208Z,8.60
2023-04-18T11:55:17.227Z,8.30
2023-04-18T11:57:56.868Z,8.50
2023-04-18T12:00:37.497Z,8.97
2023-04-18T12:03:07.774Z,9.77
2023-04-18T12:05:37.065Z,9.63
2023-04-18T12:08:18.214Z,9.37
2023-04-18T12:10:52.782Z,9.80
2023-04-18T12:13:25.951Z,10.33
2023-04-18T12:15:53.482Z,10.10
2023-04-18T12:18:20.134Z,10.47
2023-04-18T12:20:53.987Z,10.87
2023-04-18T12:23:42.393Z,10.80
2023-04-18T12:26:14.533Z,9.83
2023-04-18T12:28:44.871Z,10.77
2023-04-18T12:31:11.559Z,10.77
2023-04-18T12:33:38.168Z,9.87
2023-04-18T12:36:06.056Z,10.40
2023-04-18T12:38:32.613Z,9.97
2023-04-18T12:40:59.285Z,10.17
2023-04-18T12:43:26.504Z,10.90
2023-04-18T12:45:53.084Z,10.53
2023-04-18T12:48:19.661Z,11.63
2023-04-18T12:50:46.241Z,11.00
2023-04-18T12:53:12.790Z,10.33
2023-04-18T12:55:39.378Z,11.17
2023-04-18T12:58:05.965Z,11.13
2023-04-18T13:00:32.949Z,10.30
2023-04-18T13:03:00.051Z,10.60
2023-04-18T13:05:32.499Z,10.90
2023-04-18T13:08:12.684Z,10.60
2023-04-18T13:10:42.559Z,10.70
2023-04-18T13:13:09.143Z,10.93
2023-04-18T13:15:36.207Z,10.30
2023-04-18T13:18:05.947Z,11.00
2023-04-18T13:20:34.085Z,10.60
2023-04-18T13:23:04.415Z,10.67
2023-04-18T13:25:31.315Z,10.43
2023-04-18T13:27:58.521Z,10.87
2023-04-18T13:30:25.336Z,10.53
2023-04-18T13:32:52.100Z,10.10
2023-04-18T13:35:18.853Z,10.50
2023-04-18T13:37:46.164Z,10.00
2023-04-18T13:40:13.013Z,10.20
2023-04-18T13:42:39.628Z,9.70
2023-04-18T13:45:07.247Z,9.47
2023-04-18T13:47:34.451Z,10.23
2023-04-18T13:50:01.180Z,9.40
2023-04-18T13:52:27.829Z,9.43
2023-04-18T13:54:55.575Z,9.33
2023-04-18T13:57:23.388Z,9.37
2023-04-18T13:59:50.136Z,9.60
2023-04-18T14:02:16.903Z,8.60
2023-04-18T14:04:43.817Z,8.63
2023-04-18T14:07:10.600Z,8.83
2023-04-18T14:09:37.300Z,9.40
2023-04-18T14:12:04.239Z,9.07
2023-04-18T14:14:30.936Z,9.00
2023-04-18T14:16:57.677Z,8.23
2023-04-18T14:19:27.604Z,8.27
2023-04-18T14:21:54.590Z,8.40
2023-04-18T14:24:21.282Z,8.93
2023-04-18T14:26:47.940Z,8.80
2023-04-18T14:29:14.924Z,8.48
2023-04-18T14:31:41.958Z,8.70
2023-04-18T14:34:09.558Z,8.90
2023-04-18T14:36:36.557Z,9.23
2023-04-18T14:39:03.595Z,8.23
2023-04-18T14:41:30.403Z,8.47
2023-04-18T14:43:57.039Z,9.30
2023-04-18T14:46:23.688Z,8.47
2023-04-18T14:48:50.906Z,8.47
2023-04-18T14:51:17.718Z,8.37
2023-04-18T14:53:44.754Z,8.30
2023-04-18T14:56:11.662Z,8.50
2023-04-18T14:58:38.324Z,8.13
2023-04-18T15:01:05.329Z,7.90
2023-04-18T15:03:32.400Z,8.03
2023-04-18T15:05:59.097Z,8.33
2023-04-18T15:08:25.956Z,8.13
2023-04-18T15:10:52.584Z,8.20
2023-04-18T15:13:19.494Z,7.23
2023-04-18T15:15:53.624Z,7.07
2023-04-18T15:18:20.542Z,6.80
2023-04-18T15:20:50.119Z,6.73
2023-04-18T15:23:16.819Z,6.03
2023-04-18T15:25:45.229Z,5.87
2023-04-18T15:28:13.630Z,5.60
2023-04-18T15:30:41.563Z,5.53
2023-04-18T15:33:08.596Z,5.37
2023-04-18T15:35:35.814Z,5.17
2023-04-18T15:38:02.533Z,5.20
2023-04-18T15:40:30.007Z,5.23
2023-04-18T15:42:57.902Z,5.33
2023-04-18T15:45:24.532Z,5.40
2023-04-18T15:47:51.555Z,5.30
2023-04-18T15:50:18.307Z,5.33
2023-04-18T15:52:44.937Z,5.37
2023-04-18T15:55:16.009Z,4.90
2023-04-18T15:57:42.716Z,4.97
2023-04-18T16:00:15.741Z,5.23
2023-04-18T16:02:43.839Z,5.07
2023-04-18T16:05:12.388Z,4.63
2023-04-18T16:07:43.428Z,4.80
2023-04-18T16:10:10.980Z,4.00
2023-04-18T16:12:41.085Z,4.60
2023-04-18T16:15:09.392Z,4.50
2023-04-18T16:17:37.326Z,4.03
2023-04-18T16:20:05.949Z,3.63
2023-04-18T16:22:32.615Z,4.10
2023-04-18T16:24:59.272Z,4.00
2023-04-18T16:27:26.097Z,4.23
2023-04-18T16:29:58.387Z,4.27
2023-04-18T16:32:25.378Z,4.17
2023-04-18T16:34:52.149Z,4.30
2023-04-18T16:37:18.819Z,4.20
2023-04-18T16:39:45.472Z,4.10
2023-04-18T16:42:14.868Z,3.90
2023-04-18T16:44:42.158Z,3.73
2023-04-18T16:47:08.833Z,4.57
2023-04-18T16:49:35.725Z,4.33
2023-04-18T16:52:02.347Z,4.60
2023-04-18T16:54:29.328Z,4.27
2023-04-18T16:56:56.915Z,3.87
2023-04-18T16:59:23.736Z,4.50
2023-04-18T17:01:50.444Z,3.93
2023-04-18T17:04:17.508Z,4.27
2023-04-18T17:06:44.314Z,4.13
2023-04-18T17:09:13.680Z,5.17
2023-04-18T17:11:41.412Z,4.80
2023-04-18T17:14:08.940Z,4.33
2023-04-18T17:16:38.683Z,4.57
2023-04-18T17:19:05.883Z,3.97
2023-04-18T17:21:33.493Z,4.20
2023-04-18T17:24:03.483Z,5.27
2023-04-18T17:26:34.352Z,5.27
2023-04-18T17:29:04.609Z,4.03
2023-04-18T17:31:31.944Z,4.30
2023-04-18T17:33:59.042Z,4.10
2023-04-18T17:36:26.262Z,4.10
2023-04-18T17:38:52.850Z,4.63
2023-04-18T17:41:21.410Z,3.80
2023-04-18T17:43:50.775Z,4.27
2023-04-18T17:46:17.505Z,4.00
2023-04-18T17:48:44.129Z,4.37
2023-04-18T17:51:10.790Z,4.90
2023-04-18T17:53:37.363Z,4.77
2023-04-18T17:56:04.301Z,4.70
2023-04-18T17:58:31.409Z,4.47
2023-04-18T18:00:58.313Z,4.77
2023-04-18T18:03:25.435Z,4.87
2023-04-18T18:05:55.120Z,4.90
2023-04-18T18:08:22.552Z,4.80
2023-04-18T18:10:49.730Z,4.70
2023-04-18T18:13:16.630Z,4.33
2023-04-18T18:15:43.488Z,4.83
2023-04-18T18:18:10.203Z,4.40
2023-04-18T18:20:37.079Z,4.00
2023-04-18T18:23:03.690Z,4.50
2023-04-18T18:25:37.306Z,3.70
2023-04-18T18:28:04.258Z,4.13
2023-04-18T18:30:30.965Z,4.40
2023-04-18T18:33:00.259Z,4.10
2023-04-18T18:35:27.065Z,4.20
2023-04-18T18:37:53.665Z,4.47
2023-04-18T18:40:20.365Z,4.27
2023-04-18T18:42:49.388Z,3.70
2023-04-18T18:45:16.351Z,4.03
2023-04-18T18:47:43.222Z,4.50
2023-04-18T18:50:10.294Z,3.97
2023-04-18T18:52:37.249Z,3.93
2023-04-18T18:55:04.539Z,3.97
2023-04-18T18:57:34.690Z,4.30
2023-04-18T19:00:01.662Z,4.20
2023-04-18T19:02:28.551Z,4.13
2023-04-18T19:04:55.330Z,4.07
2023-04-18T19:07:21.903Z,4.17
2023-04-18T19:09:53.435Z,4.20
2023-04-18T19:12:20.814Z,4.57
2023-04-18T19:14:49.852Z,4.60
2023-04-18T19:17:22.116Z,4.27
2023-04-18T19:19:57.918Z,4.60
2023-04-18T19:22:26.085Z,5.13
2023-04-18T19:24:53.311Z,4.20
2023-04-18T19:27:20.120Z,4.33
2023-04-18T19:29:46.769Z,4.57
2023-04-18T19:32:13.390Z,4.50
2023-04-18T19:34:40.299Z,4.60
2023-04-18T19:37:07.338Z,4.50
2023-04-18T19:39:33.881Z,4.37
2023-04-18T19:42:04.218Z,4.30
2023-04-18T19:44:31.243Z,4.90
2023-04-18T19:46:57.862Z,4.43
2023-04-18T19:49:24.583Z,4.60
2023-04-18T19:51:52.705Z,4.97
2023-04-18T19:54:21.850Z,4.93
2023-04-18T19:56:48.779Z,4.57
2023-04-18T19:59:15.531Z,4.97
2023-04-18T20:01:42.309Z,4.87
2023-04-18T20:04:09.636Z,5.10
2023-04-18T20:06:36.520Z,5.40
2023-04-18T20:09:04.067Z,4.80
2023-04-18T20:11:30.673Z,5.07
2023-04-18T20:13:57.251Z,4.87
2023-04-18T20:16:23.970Z,5.37
2023-04-18T20:18:54.960Z,5.73
2023-04-18T20:21:21.813Z,5.47
2023-04-18T20:23:48.484Z,5.10
2023-04-18T20:26:15.044Z,5.17
2023-04-18T20:28:41.630Z,4.87
2023-04-18T20:31:08.420Z,4.93
2023-04-18T20:33:36.398Z,5.20
2023-04-18T20:36:03.505Z,4.70
2023-04-18T20:38:30.402Z,5.17
2023-04-18T20:40:58.888Z,4.97
2023-04-18T20:43:25.715Z,5.40
2023-04-18T20:45:54.014Z,5.30
2023-04-18T20:48:24.097Z,5.07
2023-04-18T20:50:51.303Z,5.53
2023-04-18T20:53:22.509Z,5.33
2023-04-18T20:55:49.413Z,5.70
2023-04-18T20:58:16.032Z,5.10
2023-04-18T21:00:44.636Z,5.60
2023-04-18T21:03:15.411Z,4.93
2023-04-18T21:05:43.474Z,5.70
2023-04-18T21:08:11.011Z,5.80
2023-04-18T21:10:37.633Z,5.87
2023-04-18T21:13:04.440Z,5.30
2023-04-18T21:15:30.986Z,6.00
2023-04-18T21:17:57.565Z,6.53
2023-04-18T21:20:24.205Z,6.07
2023-04-18T21:22:50.761Z,5.87
2023-04-18T21:25:18.558Z,5.90
2023-04-18T21:27:45.134Z,5.93
2023-04-18T21:30:12.037Z,5.57
2023-04-18T21:32:38.610Z,6.10
2023-04-18T21:35:05.564Z,5.77
2023-04-18T21:37:32.184Z,5.97
2023-04-18T21:39:58.744Z,6.00
2023-04-18T21:42:25.303Z,6.30
2023-04-18T21:44:51.898Z,6.10
2023-04-18T21:47:18.452Z,6.27
2023-04-18T21:49:45.694Z,6.00
2023-04-18T21:52:12.307Z,6.07
2023-04-18T21:54:39.958Z,6.00
2023-04-18T21:57:06.635Z,5.80
2023-04-18T21:59:33.324Z,6.10
2023-04-18T22:02:00.095Z,6.67
2023-04-18T22:04:26.907Z,5.97
2023-04-18T22:06:54.213Z,6.20
2023-04-18T22:09:21.340Z,6.20
2023-04-18T22:11:48.391Z,6.17
2023-04-18T22:14:15.075Z,6.37
2023-04-18T22:16:42.282Z,5.73
2023-04-18T22:19:09.077Z,5.30
2023-04-18T22:21:35.709Z,6.07
2023-04-18T22:24:02.633Z,5.50
2023-04-18T22:26:29.286Z,5.30
2023-04-18T22:28:55.877Z,5.40
2023-04-18T22:31:22.553Z,5.00
2023-04-18T22:33:49.248Z,4.90
2023-04-18T22:36:15.874Z,5.10
2023-04-18T22:38:42.569Z,5.30
2023-04-18T22:41:09.148Z,4.63
2023-04-18T22:43:35.756Z,4.60
2023-04-18T22:46:02.800Z,5.10
2023-04-18T22:48:29.926Z,5.10
2023-04-18T22:50:56.635Z,4.27
2023-04-18T22:53:23.397Z,4.40
2023-04-18T22:55:49.955Z,4.10
2023-04-18T22:58:16.530Z,4.20
2023-04-18T23:00:43.096Z,4.20
2023-04-18T23:03:09.928Z,3.60
2023-04-18T23:05:36.665Z,4.03
2023-04-18T23:08:03.324Z,3.83
2023-04-18T23:10:29.977Z,4.13
2023-04-18T23:12:57.076Z,4.30
2023-04-18T23:15:24.539Z,4.00
2023-04-18T23:17:54.372Z,3.60
2023-04-18T23:20:21.780Z,3.67
2023-04-18T23:22:51.293Z,3.87
2023-04-18T23:25:19.266Z,4.10
2023-04-18T23:27:45.982Z,3.87
2023-04-18T23:30:12.947Z,3.63
2023-04-18T23:32:39.587Z,3.70
2023-04-18T23:35:06.769Z,3.37
2023-04-18T23:37:33.366Z,3.57
2023-04-18T23:40:00.325Z,3.40
2023-04-18T23:42:27.308Z,3.17
2023-04-18T23:44:54.498Z,3.60
2023-04-18T23:47:21.784Z,3.60
2023-04-18T23:49:48.419Z,3.20
2023-04-18T23:52:15.116Z,3.20
2023-04-18T23:54:41.715Z,3.20
2023-04-18T23:57:08.367Z,3.33
2023-04-18T23:59:34.929Z,3.10
